Time;durP1;ratioP1;P1;durP2;ratioP2;P2;SDS_P1;SDS_P2;PMS_P1;PMS_P2;Temp;Humidity;BMP_temperature;BMP_pressure;BME280_temperature;BME280_humidity;BME280_pressure;Samples;Min_cycle;Max_cycle;Signal;HPM_P1;HPM_P2
2022/07/07 00:01:56;;;;;;;3.00;1.10;;;16.10;99.90;;;;;;10370172;28;20231;-77
2022/07/07 00:07:18;;;;;;;3.22;1.10;;;16.00;99.90;;;;;;10353918;28;20204;-78
2022/07/07 00:12:40;;;;;;;3.05;0.98;;;16.00;99.90;;;;;;10339597;28;20209;-78
2022/07/07 00:18:01;;;;;;;2.22;0.90;;;16.00;99.90;;;;;;10359746;28;20203;-78
2022/07/07 00:23:22;;;;;;;1.95;0.90;;;15.90;99.90;;;;;;10361553;28;20265;-78
2022/07/07 00:28:44;;;;;;;4.78;0.90;;;15.90;99.90;;;;;;10362494;28;20197;-78
2022/07/07 00:34:05;;;;;;;5.45;1.20;;;15.80;99.90;;;;;;10361553;28;20533;-78
2022/07/07 00:39:27;;;;;;;3.80;0.90;;;15.80;99.90;;;;;;10362122;28;20219;-78
2022/07/07 00:44:48;;;;;;;3.45;0.80;;;15.80;99.90;;;;;;10361921;28;20463;-78
2022/07/07 00:50:10;;;;;;;2.47;0.82;;;15.80;99.90;;;;;;10361738;28;20280;-78
2022/07/07 00:55:32;;;;;;;3.22;1.30;;;15.80;99.90;;;;;;10347148;28;20201;-78
2022/07/07 01:00:54;;;;;;;4.60;1.30;;;15.80;99.90;;;;;;10361368;28;20541;-78
2022/07/07 01:06:16;;;;;;;1.48;0.73;;;15.80;99.90;;;;;;10361025;28;20296;-78
2022/07/07 01:11:46;;;;;;;2.95;1.02;;;15.80;1.00;;;;;;10360661;28;20212;-78
2022/07/07 01:17:07;;;;;;;4.00;1.13;;;15.80;1.00;;;;;;10359304;28;20287;-78
2022/07/07 01:22:31;;;;;;;2.75;1.23;;;15.70;1.00;;;;;;10358689;28;20293;-78
2022/07/07 01:27:53;;;;;;;3.42;1.17;;;15.70;1.00;;;;;;10360852;28;20201;-78
2022/07/07 01:33:16;;;;;;;2.42;0.88;;;15.70;1.00;;;;;;10376906;28;20398;-78
2022/07/07 01:38:38;;;;;;;2.53;0.88;;;15.80;1.00;;;;;;10359824;28;20187;-78
2022/07/07 01:43:59;;;;;;;4.93;1.10;;;15.80;1.00;;;;;;10358908;28;20518;-78
2022/07/07 01:49:20;;;;;;;2.38;1.17;;;15.80;1.00;;;;;;10344540;28;20248;-78
2022/07/07 01:54:42;;;;;;;6.63;1.20;;;15.70;1.00;;;;;;10344443;28;20200;-79
2022/07/07 02:00:04;;;;;;;2.80;1.13;;;15.70;1.00;;;;;;10358932;28;20471;-78
2022/07/07 02:05:25;;;;;;;6.05;1.35;;;15.60;1.00;;;;;;10303954;28;20205;-78
2022/07/07 02:16:27;;;;;;;5.60;2.00;;;15.60;1.00;;;;;;10358474;28;20193;-78
2022/07/07 02:21:48;;;;;;;5.40;1.67;;;15.60;1.00;;;;;;10356869;28;20227;-78
2022/07/07 02:27:10;;;;;;;3.45;0.85;;;15.50;1.00;;;;;;10357197;28;20199;-78
2022/07/07 02:32:32;;;;;;;1.92;0.82;;;15.40;1.00;;;;;;10342595;28;20200;-78
2022/07/07 02:37:53;;;;;;;1.58;0.82;;;15.40;65.80;;;;;;10357214;28;20205;-78
2022/07/07 02:43:14;;;;;;;5.07;1.20;;;15.30;99.90;;;;;;10356336;28;20228;-78
2022/07/07 02:48:36;;;;;;;4.65;1.20;;;15.20;99.90;;;;;;10356866;28;20226;-78
2022/07/07 02:53:57;;;;;;;7.85;2.00;;;15.20;1.00;;;;;;10355697;28;20228;-78
2022/07/07 02:59:19;;;;;;;4.28;1.77;;;15.10;1.00;;;;;;10356954;28;20192;-78
2022/07/07 03:04:42;;;;;;;3.42;1.10;;;;;;;;;;10355194;28;20240;-78
2022/07/07 03:10:08;;;;;;;2.20;0.93;;;15.40;1.00;;;;;;10328842;28;20381;-78
2022/07/07 03:15:30;;;;;;;4.40;1.75;;;15.00;1.00;;;;;;10355091;28;20192;-78
2022/07/07 03:20:51;;;;;;;5.40;1.65;;;14.90;24.90;;;;;;10354086;28;20428;-78
2022/07/07 03:26:13;;;;;;;2.33;0.93;;;14.90;99.90;;;;;;10354761;28;20213;-78
2022/07/07 03:31:34;;;;;;;2.45;1.20;;;14.80;29.50;;;;;;10354341;28;20199;-78
2022/07/07 03:36:56;;;;;;;4.13;1.13;;;14.80;1.00;;;;;;10354396;28;20226;-79
2022/07/07 03:42:17;;;;;;;3.72;1.55;;;14.80;1.00;;;;;;10368107;28;20523;-78
2022/07/07 03:47:38;;;;;;;3.50;2.17;;;14.80;1.00;;;;;;10353853;28;20521;-78
2022/07/07 03:53:00;;;;;;;6.43;1.75;;;14.80;1.00;;;;;;10352905;28;20508;-78
2022/07/07 03:58:21;;;;;;;1.42;1.20;;;14.90;1.00;;;;;;10354986;28;20195;-78
2022/07/07 04:03:43;;;;;;;1.83;1.40;;;14.90;1.00;;;;;;10353750;28;20221;-78
2022/07/07 04:09:05;;;;;;;3.95;1.67;;;15.00;1.00;;;;;;10339516;28;20207;-78
2022/07/07 04:14:26;;;;;;;3.95;1.58;;;15.00;1.00;;;;;;10353115;28;20208;-78
2022/07/07 04:19:48;;;;;;;6.30;2.42;;;15.10;1.00;;;;;;10354078;28;20204;-78
2022/07/07 04:25:10;;;;;;;2.58;1.50;;;15.20;99.90;;;;;;10354690;28;20204;-78
2022/07/07 04:30:32;;;;;;;4.53;1.58;;;15.20;1.00;;;;;;10339246;28;20204;-78
2022/07/07 04:35:53;;;;;;;2.10;1.17;;;15.20;1.00;;;;;;10353675;28;20188;-78
2022/07/07 04:41:15;;;;;;;3.53;1.55;;;15.20;1.00;;;;;;10355207;28;20231;-78
2022/07/07 04:46:36;;;;;;;3.72;1.70;;;15.40;1.00;;;;;;10352477;28;20239;-78
2022/07/07 04:51:57;;;;;;;3.85;1.20;;;15.30;1.00;;;;;;10352966;28;20203;-78
2022/07/07 04:57:19;;;;;;;2.97;1.55;;;15.30;1.00;;;;;;10338492;28;20275;-78
2022/07/07 05:02:41;;;;;;;3.55;1.42;;;15.40;99.90;;;;;;10355888;28;20228;-78
2022/07/07 05:08:03;;;;;;;4.68;1.45;;;15.50;99.90;;;;;;10361790;28;20212;-78
2022/07/07 05:13:24;;;;;;;4.32;1.25;;;15.50;68.60;;;;;;10347825;28;20204;-79
2022/07/07 05:18:45;;;;;;;4.40;1.90;;;15.70;17.20;;;;;;10359299;28;20197;-79
2022/07/07 05:24:07;;;;;;;2.65;1.02;;;15.80;1.00;;;;;;10358981;28;20233;-78
2022/07/07 05:29:28;;;;;;;2.25;1.00;;;16.10;99.90;;;;;;10359943;28;20394;-79
2022/07/07 05:34:49;;;;;;;3.88;1.38;;;16.30;99.90;;;;;;10344974;28;20198;-78
2022/07/07 05:40:11;;;;;;;4.18;1.50;;;16.40;99.90;;;;;;10358890;28;20486;-78
2022/07/07 05:45:33;;;;;;;2.90;1.08;;;16.70;1.00;;;;;;10374473;28;20239;-77
2022/07/07 05:50:54;;;;;;;3.63;1.20;;;16.90;1.00;;;;;;10361933;28;20450;-78
2022/07/07 05:56:16;;;;;;;4.45;1.02;;;17.30;99.90;;;;;;10358301;28;20419;-78
2022/07/07 06:01:37;;;;;;;4.53;0.80;;;17.40;10.50;;;;;;10358031;28;20228;-78
2022/07/07 06:06:58;;;;;;;2.10;0.70;;;17.60;1.00;;;;;;10357558;28;20203;-78
2022/07/07 06:12:21;;;;;;;2.38;1.10;;;17.90;1.00;;;;;;10356460;28;20527;-78
2022/07/07 06:17:43;;;;;;;2.75;1.00;;;18.30;1.00;;;;;;10358127;28;20207;-78
2022/07/07 06:23:24;;;;;;;5.68;1.13;;;18.30;99.90;;;;;;10356572;28;20428;-78
2022/07/07 06:28:45;;;;;;;3.65;1.05;;;18.40;99.90;;;;;;10357790;28;20217;-78
2022/07/07 06:34:07;;;;;;;8.00;0.85;;;18.80;99.90;;;;;;10357583;28;20246;-78
2022/07/07 06:39:29;;;;;;;3.03;1.08;;;18.70;99.90;;;;;;10357280;28;20190;-79
2022/07/07 06:44:50;;;;;;;1.85;0.88;;;18.70;45.50;;;;;;10356858;28;20217;-79
2022/07/07 06:50:12;;;;;;;5.35;0.70;;;19.00;1.00;;;;;;10355228;28;20433;-79
2022/07/07 06:55:33;;;;;;;3.90;0.85;;;19.20;1.00;;;;;;10356832;28;20276;-78
2022/07/07 07:00:55;;;;;;;1.13;0.80;;;19.20;1.00;;;;;;10355673;28;20447;-78
2022/07/07 07:06:16;;;;;;;3.45;0.80;;;19.20;1.00;;;;;;10369216;28;20190;-78
2022/07/07 07:11:38;;;;;;;4.65;1.00;;;19.50;1.00;;;;;;10354938;28;20481;-79
2022/07/07 07:16:59;;;;;;;3.35;1.05;;;19.80;1.00;;;;;;10354855;28;20208;-78
2022/07/07 07:22:21;;;;;;;1.50;0.75;;;19.80;1.00;;;;;;10347064;28;20678;-85
2022/07/07 07:27:43;;;;;;;17.52;0.90;;;19.90;1.00;;;;;;10355193;28;20198;-77
2022/07/07 07:33:05;;;;;;;1.88;0.90;;;20.00;1.00;;;;;;10351103;28;20387;-78
2022/07/07 07:38:26;;;;;;;4.18;0.98;;;20.00;1.00;;;;;;10363494;28;20391;-78
2022/07/07 07:43:49;;;;;;;3.70;0.98;;;20.10;1.00;;;;;;10330824;28;20517;-78
2022/07/07 07:49:10;;;;;;;3.50;0.80;;;20.10;99.90;;;;;;10314725;28;20229;-78
2022/07/07 07:54:31;;;;;;;1.40;0.95;;;20.20;99.90;;;;;;10309285;28;20493;-78
2022/07/07 07:59:55;;;;;;;2.63;0.60;;;20.00;99.90;;;;;;10309348;28;20502;-79
2022/07/07 08:05:18;;;;;;;1.25;0.70;;;19.80;99.90;;;;;;10308858;28;20464;-77
2022/07/07 08:10:39;;;;;;;2.55;0.93;;;19.60;99.90;;;;;;10344687;28;20232;-78
2022/07/07 08:16:01;;;;;;;4.43;1.13;;;19.70;99.90;;;;;;10347659;28;20209;-78
2022/07/07 08:21:23;;;;;;;1.95;0.93;;;20.00;99.90;;;;;;10313817;28;20210;-77
2022/07/07 08:26:44;;;;;;;4.93;1.00;;;20.00;99.90;;;;;;10328714;28;20197;-79
2022/07/07 08:32:14;;;;;;;4.60;2.25;;;20.00;99.90;;;;;;10341969;28;20230;-76
2022/07/07 08:37:35;;;;;;;0.82;0.77;;;20.20;99.90;;;;;;10348672;28;20206;-79
2022/07/07 08:42:59;;;;;;;4.45;1.50;;;20.40;99.90;;;;;;10357012;28;20239;-79
2022/07/07 08:48:21;;;;;;;2.95;1.10;;;20.80;99.90;;;;;;10355278;28;20277;-79
2022/07/07 08:53:48;;;;;;;1.20;0.73;;;20.80;99.90;;;;;;10345843;28;20206;-77
2022/07/07 08:59:13;;;;;;;14.57;1.35;;;20.70;99.90;;;;;;10346413;28;20198;-78
2022/07/07 09:04:35;;;;;;;3.03;1.05;;;20.50;99.90;;;;;;10370682;28;20232;-77
2022/07/07 09:09:57;;;;;;;3.65;1.27;;;20.10;99.90;;;;;;10355156;28;20198;-78
2022/07/07 09:15:18;;;;;;;1.35;0.70;;;20.00;99.90;;;;;;10354012;28;20376;-79
2022/07/07 09:20:40;;;;;;;1.95;0.85;;;20.40;99.90;;;;;;10330689;28;20444;-80
2022/07/07 09:26:01;;;;;;;2.67;0.75;;;20.40;99.90;;;;;;10314661;28;20289;-80
2022/07/07 09:31:23;;;;;;;2.35;0.65;;;20.50;99.90;;;;;;10314705;28;20206;-80
2022/07/07 09:42:30;;;;;;;2.05;0.75;;;20.10;99.90;;;;;;10313994;28;20568;-80
2022/07/07 09:47:52;;;;;;;2.08;0.82;;;19.80;99.90;;;;;;10334528;28;20253;-80
2022/07/07 09:53:13;;;;;;;1.75;0.90;;;19.60;99.90;;;;;;10355488;28;20229;-80
2022/07/07 09:58:35;;;;;;;2.20;1.02;;;19.50;99.90;;;;;;10353406;28;20202;-80
2022/07/07 10:04:03;;;;;;;4.60;0.80;;;19.40;99.90;;;;;;10330407;28;20237;-80
2022/07/07 10:09:25;;;;;;;6.07;1.38;;;19.50;99.90;;;;;;10345933;28;20206;-79
2022/07/07 10:14:49;;;;;;;3.13;0.85;;;19.40;1.00;;;;;;10378881;28;20197;-82
2022/07/07 10:20:11;;;;;;;17.08;1.30;;;19.40;1.00;;;;;;10347276;28;20214;-80
2022/07/07 10:25:34;;;;;;;3.80;1.00;;;19.40;1.00;;;;;;10316982;28;20301;-76
2022/07/07 10:30:55;;;;;;;24.92;1.10;;;19.50;1.00;;;;;;10311041;28;20516;-79
2022/07/07 10:36:17;;;;;;;15.70;1.20;;;19.50;1.00;;;;;;10323423;28;20224;-79
2022/07/07 10:41:40;;;;;;;2.38;0.70;;;19.30;1.00;;;;;;10351707;28;20230;-80
2022/07/07 10:47:12;;;;;;;5.35;0.80;;;19.30;1.00;;;;;;10352964;28;20242;-80
2022/07/07 10:52:42;;;;;;;2.35;0.90;;;19.30;1.00;;;;;;10362261;28;20196;-79
2022/07/07 10:58:51;;;;;;;1.50;0.80;;;19.40;1.00;;;;;;10322471;28;20225;-78
2022/07/07 11:04:42;;;;;;;4.00;0.93;;;19.60;1.00;;;;;;10343864;28;20476;-78
2022/07/07 11:10:10;;;;;;;0.88;0.60;;;19.70;1.00;;;;;;10326914;28;20210;-78
2022/07/07 11:15:35;;;;;;;3.40;1.10;;;19.80;1.00;;;;;;10350469;28;20240;-79
2022/07/07 11:21:00;;;;;;;1.40;0.70;;;19.90;1.00;;;;;;10341794;28;20556;-80
2022/07/07 11:26:26;;;;;;;2.38;0.93;;;20.00;1.00;;;;;;10326026;28;20559;-79
2022/07/07 11:31:48;;;;;;;3.30;0.77;;;20.00;1.00;;;;;;10323385;28;20202;-78
2022/07/07 11:37:19;;;;;;;1.50;0.88;;;20.20;1.00;;;;;;10349594;28;20193;-79
2022/07/07 11:42:43;;;;;;;3.38;0.75;;;20.10;1.00;;;;;;10352258;28;20233;-81
2022/07/07 11:48:08;;;;;;;2.70;0.68;;;20.10;1.00;;;;;;10334047;28;20252;-80
2022/07/07 11:53:29;;;;;;;2.53;0.70;;;20.00;1.00;;;;;;10330361;28;20190;-79
2022/07/07 11:58:56;;;;;;;6.03;1.05;;;20.00;1.00;;;;;;10323775;28;20195;-79
2022/07/07 12:04:20;;;;;;;3.88;1.02;;;20.00;1.00;;;;;;10329763;28;20260;-77
2022/07/07 12:09:46;;;;;;;6.90;1.20;;;20.00;1.00;;;;;;10330562;28;20517;-76
2022/07/07 12:15:08;;;;;;;4.82;1.00;;;20.00;1.00;;;;;;10356533;28;20264;-77
2022/07/07 12:20:30;;;;;;;1.65;0.70;;;19.80;1.00;;;;;;10357606;28;20213;-79
2022/07/07 12:26:20;;;;;;;2.00;0.95;;;19.70;1.00;;;;;;10356776;28;20398;-78
2022/07/07 12:31:42;;;;;;;3.78;1.23;;;19.60;1.00;;;;;;10340989;28;20281;-77
2022/07/07 12:37:04;;;;;;;1.75;0.85;;;19.60;1.00;;;;;;10336044;28;20212;-81
2022/07/07 12:42:26;;;;;;;2.00;0.80;;;19.80;1.00;;;;;;10341914;28;20229;-82
2022/07/07 12:47:50;;;;;;;1.70;0.80;;;19.70;1.00;;;;;;10310152;28;20243;-82
2022/07/07 12:53:14;;;;;;;3.00;1.00;;;19.60;1.00;;;;;;10355024;28;20524;-83
2022/07/07 12:58:55;;;;;;;4.57;1.17;;;19.50;1.00;;;;;;10341401;28;20201;-79
2022/07/07 13:04:16;;;;;;;4.40;1.40;;;19.70;1.00;;;;;;10341299;28;20233;-83
2022/07/07 13:09:38;;;;;;;2.55;0.80;;;19.70;1.00;;;;;;10323876;28;20272;-77
2022/07/07 13:14:59;;;;;;;10.85;2.15;;;19.40;1.00;;;;;;10356278;28;20202;-79
2022/07/07 13:20:21;;;;;;;16.50;1.73;;;19.60;1.00;;;;;;10354311;28;20197;-81
2022/07/07 13:25:42;;;;;;;3.28;1.17;;;19.70;1.00;;;;;;10354223;28;20225;-79
2022/07/07 13:31:04;;;;;;;2.53;1.10;;;19.50;1.00;;;;;;10354015;28;20304;-76
2022/07/07 13:36:26;;;;;;;3.58;0.77;;;19.40;1.00;;;;;;10353361;28;20393;-82
2022/07/07 13:41:47;;;;;;;3.33;1.10;;;19.30;1.00;;;;;;10314016;28;20241;-80
2022/07/07 13:47:27;;;;;;;1.27;0.95;;;19.10;1.00;;;;;;10313752;28;20242;-79
2022/07/07 13:52:49;;;;;;;8.15;1.30;;;19.10;1.00;;;;;;10313265;28;20190;-77
2022/07/07 13:58:11;;;;;;;4.65;1.00;;;19.00;1.00;;;;;;10324014;28;20212;-80
2022/07/07 14:03:34;;;;;;;1.92;0.85;;;19.10;1.00;;;;;;10332470;28;20292;-81
2022/07/07 14:08:56;;;;;;;2.17;0.88;;;18.90;1.00;;;;;;10354318;28;20230;-78
2022/07/07 14:14:18;;;;;;;6.03;1.70;;;18.90;1.00;;;;;;10314317;28;20202;-78
2022/07/07 14:19:39;;;;;;;1.83;1.20;;;18.90;1.00;;;;;;10348553;28;20190;-79
2022/07/07 14:25:03;;;;;;;4.15;1.13;;;18.90;1.00;;;;;;10313578;28;20250;-78
2022/07/07 14:30:25;;;;;;;1.27;1.15;;;18.80;1.00;;;;;;10349412;28;20485;-81
2022/07/07 14:35:46;;;;;;;2.00;1.17;;;18.80;51.70;;;;;;10322891;28;20206;-78
2022/07/07 14:41:07;;;;;;;1.45;1.00;;;18.90;83.10;;;;;;10324600;28;20198;-77
2022/07/07 14:46:30;;;;;;;2.85;2.40;;;19.20;18.60;;;;;;10311891;28;20463;-79
2022/07/07 14:51:52;;;;;;;1.08;0.90;;;19.30;1.00;;;;;;10311502;28;20225;-78
2022/07/07 14:57:13;;;;;;;0.70;0.70;;;19.40;3.00;;;;;;10310840;28;20215;-83
2022/07/07 15:02:35;;;;;;;3.30;0.90;;;19.30;51.30;;;;;;10333255;28;20237;-77
2022/07/07 15:07:57;;;;;;;1.88;1.00;;;19.20;65.60;;;;;;10339494;28;20198;-78
2022/07/07 15:13:19;;;;;;;1.58;1.13;;;18.90;99.90;;;;;;10355624;28;20562;-79
2022/07/07 15:18:42;;;;;;;3.55;1.67;;;18.80;99.90;;;;;;10370124;28;20197;-77
2022/07/07 15:24:04;;;;;;;3.30;1.02;;;18.90;1.00;;;;;;10356792;28;20214;-77
2022/07/07 15:29:26;;;;;;;1.20;0.98;;;18.90;99.90;;;;;;10351966;28;20190;-75
2022/07/07 15:34:48;;;;;;;3.72;2.42;;;19.00;99.90;;;;;;10327520;28;20194;-77
2022/07/07 15:40:09;;;;;;;14.93;11.07;;;18.90;1.00;;;;;;10312794;28;20186;-77
2022/07/07 15:45:31;;;;;;;5.07;3.53;;;18.90;1.00;;;;;;10314416;28;20234;-77
2022/07/07 15:50:53;;;;;;;4.95;2.65;;;18.90;1.00;;;;;;10314688;28;20217;-77
2022/07/07 15:56:21;;;;;;;4.45;2.35;;;18.80;1.00;;;;;;10313758;28;20199;-77
2022/07/07 16:01:44;;;;;;;4.10;2.40;;;18.70;1.00;;;;;;10334974;28;20194;-77
2022/07/07 16:07:08;;;;;;;5.72;2.67;;;18.70;16.10;;;;;;10354599;28;20268;-77
2022/07/07 16:12:31;;;;;;;4.90;2.08;;;18.70;99.90;;;;;;10362799;28;20197;-77
2022/07/07 16:17:54;;;;;;;13.20;6.28;;;18.60;99.90;;;;;;10354552;28;20370;-77
2022/07/07 16:23:15;;;;;;;7.65;3.00;;;18.60;1.00;;;;;;10353388;28;20543;-77
2022/07/07 16:28:36;;;;;;;4.78;2.28;;;18.50;1.00;;;;;;10354532;28;20426;-77
2022/07/07 16:33:57;;;;;;;4.50;3.05;;;18.40;99.90;;;;;;10330480;28;20213;-77
2022/07/07 16:39:21;;;;;;;9.40;5.93;;;18.40;1.00;;;;;;10348643;28;20197;-77
2022/07/07 16:44:43;;;;;;;4.72;2.40;;;18.30;99.90;;;;;;10339192;28;20276;-78
2022/07/07 16:50:05;;;;;;;3.40;2.17;;;18.30;1.00;;;;;;10353570;28;20408;-77
2022/07/07 16:55:26;;;;;;;5.47;2.35;;;18.20;99.90;;;;;;10353662;28;20214;-78
2022/07/07 17:00:49;;;;;;;3.92;2.25;;;18.10;1.00;;;;;;10359140;28;20196;-78
2022/07/07 17:06:10;;;;;;;4.75;3.25;;;18.10;99.90;;;;;;10335905;28;20238;-76
2022/07/07 17:11:32;;;;;;;4.05;2.30;;;17.90;1.00;;;;;;10357138;28;20208;-77
2022/07/07 17:16:53;;;;;;;4.93;2.58;;;17.90;99.90;;;;;;10329520;28;20194;-76
2022/07/07 17:22:15;;;;;;;6.20;3.53;;;17.80;1.00;;;;;;10342501;28;20232;-77
2022/07/07 17:27:37;;;;;;;3.38;2.63;;;17.70;1.00;;;;;;10320416;28;20199;-77
2022/07/07 17:32:58;;;;;;;5.63;2.80;;;17.50;1.00;;;;;;10311354;28;20216;-77
2022/07/07 17:38:20;;;;;;;7.25;4.53;;;17.50;1.00;;;;;;10354736;28;20479;-77
2022/07/07 17:43:42;;;;;;;7.80;3.67;;;17.50;1.00;;;;;;10360043;28;20222;-77
2022/07/07 17:49:03;;;;;;;9.07;6.10;;;17.30;1.00;;;;;;10323438;28;20226;-77
2022/07/07 17:54:25;;;;;;;3.97;3.13;;;17.20;1.00;;;;;;10340479;28;20198;-77
2022/07/07 17:59:46;;;;;;;29.40;15.23;;;17.10;29.90;;;;;;10359582;28;20195;-77
2022/07/07 18:05:08;;;;;;;5.85;3.53;;;17.00;94.20;;;;;;10357978;28;20286;-77
2022/07/07 18:10:30;;;;;;;4.10;2.45;;;17.00;93.20;;;;;;10357562;28;20204;-77
2022/07/07 18:15:51;;;;;;;3.13;2.83;;;16.80;95.70;;;;;;10358452;28;20653;-77
2022/07/07 18:21:13;;;;;;;4.13;2.88;;;16.90;99.90;;;;;;10333591;28;20217;-76
2022/07/07 18:26:35;;;;;;;3.88;3.10;;;16.80;99.90;;;;;;10352488;28;20539;-76
2022/07/07 18:31:56;;;;;;;3.35;3.05;;;16.80;99.90;;;;;;10363207;28;20219;-76
2022/07/07 18:37:17;;;;;;;3.38;2.83;;;16.80;99.90;;;;;;10358042;28;20375;-76
2022/07/07 18:42:39;;;;;;;3.90;3.17;;;16.90;99.90;;;;;;10357497;28;20227;-76
2022/07/07 18:48:00;;;;;;;3.72;2.90;;;16.80;99.90;;;;;;10344010;28;20404;-76
2022/07/07 18:53:24;;;;;;;4.20;3.60;;;16.80;99.90;;;;;;10357180;28;20399;-76
2022/07/07 18:58:45;;;;;;;7.43;4.20;;;16.80;99.90;;;;;;10356817;28;20546;-77
2022/07/07 19:04:07;;;;;;;4.15;3.35;;;16.70;99.90;;;;;;10356736;28;20449;-76
2022/07/07 19:09:30;;;;;;;3.67;3.38;;;16.70;99.90;;;;;;10356226;28;20356;-77
2022/07/07 19:14:51;;;;;;;4.45;3.90;;;16.60;99.90;;;;;;10354330;28;20543;-75
2022/07/07 19:20:12;;;;;;;5.45;4.72;;;16.60;99.90;;;;;;10354673;28;20205;-77
2022/07/07 19:25:34;;;;;;;4.00;3.70;;;16.60;99.90;;;;;;10356210;28;20227;-77
2022/07/07 19:30:56;;;;;;;4.75;4.00;;;16.50;99.90;;;;;;10355040;28;20215;-77
2022/07/07 19:36:21;;;;;;;4.30;3.90;;;16.60;99.90;;;;;;10354973;28;20247;-77
2022/07/07 19:41:42;;;;;;;3.90;3.25;;;16.60;99.90;;;;;;10355480;28;20210;-76
2022/07/07 19:47:04;;;;;;;5.65;5.05;;;16.60;99.90;;;;;;10355168;28;20238;-77
2022/07/07 19:52:25;;;;;;;6.07;4.85;;;16.60;99.90;;;;;;10355505;28;20196;-78
2022/07/07 19:57:47;;;;;;;6.43;5.32;;;16.60;99.90;;;;;;10329410;28;20554;-77
2022/07/07 20:03:09;;;;;;;9.18;6.45;;;16.60;99.90;;;;;;10314831;28;20227;-76
2022/07/07 20:08:30;;;;;;;14.40;8.65;;;16.50;99.90;;;;;;10334481;28;20211;-76
2022/07/07 20:13:52;;;;;;;6.22;5.63;;;16.50;99.90;;;;;;10362257;28;20200;-76
2022/07/07 20:19:15;;;;;;;6.20;5.00;;;16.40;99.90;;;;;;10354361;28;20233;-76
2022/07/07 20:24:36;;;;;;;8.07;5.90;;;16.40;99.90;;;;;;10354310;28;20224;-77
2022/07/07 20:29:58;;;;;;;8.95;6.20;;;16.30;99.90;;;;;;10354637;28;20260;-77
2022/07/07 20:35:21;;;;;;;14.38;6.88;;;16.40;99.90;;;;;;10360938;28;20201;-77
2022/07/07 20:40:44;;;;;;;6.97;6.28;;;16.40;99.90;;;;;;10362136;28;20252;-77
2022/07/07 20:46:08;;;;;;;6.43;5.57;;;16.40;99.90;;;;;;10360803;28;20231;-77
2022/07/07 20:51:30;;;;;;;5.68;5.18;;;16.40;99.90;;;;;;10347228;28;20199;-78
2022/07/07 20:56:53;;;;;;;5.75;5.25;;;16.40;99.90;;;;;;10352438;28;20354;-76
2022/07/07 21:02:15;;;;;;;6.10;5.50;;;16.40;99.90;;;;;;10361810;28;20203;-78
2022/07/07 21:07:36;;;;;;;9.70;5.75;;;16.40;99.90;;;;;;10361247;28;20200;-77
2022/07/07 21:12:59;;;;;;;7.00;5.18;;;16.30;99.90;;;;;;10360981;28;20212;-77
2022/07/07 21:18:21;;;;;;;6.90;6.20;;;16.30;99.90;;;;;;10360053;28;20197;-76
2022/07/07 21:23:42;;;;;;;5.43;4.93;;;16.30;99.90;;;;;;10359666;28;20546;-76
2022/07/07 21:29:04;;;;;;;5.60;5.10;;;16.30;99.90;;;;;;10328479;28;20247;-77
2022/07/07 21:34:26;;;;;;;5.90;5.30;;;16.30;99.90;;;;;;10339277;28;20209;-77
2022/07/07 21:39:47;;;;;;;5.68;5.18;;;16.30;99.90;;;;;;10360036;28;20191;-76
2022/07/07 21:45:09;;;;;;;6.70;4.55;;;16.20;99.90;;;;;;10358663;28;20231;-76
2022/07/07 21:50:31;;;;;;;5.68;5.05;;;16.30;99.90;;;;;;10359956;28;20232;-78
2022/07/07 21:55:53;;;;;;;4.93;4.53;;;16.40;99.90;;;;;;10334190;28;20501;-76
2022/07/07 22:01:14;;;;;;;5.05;4.55;;;16.40;99.90;;;;;;10319140;28;20200;-76
2022/07/07 22:12:18;;;;;;;5.70;5.20;;;16.40;99.90;;;;;;10358642;28;20205;-77
2022/07/07 22:17:39;;;;;;;5.30;4.80;;;16.30;99.90;;;;;;10357689;28;20219;-78
2022/07/07 22:23:01;;;;;;;5.53;4.60;;;16.40;99.90;;;;;;10357702;28;20212;-77
2022/07/07 22:28:24;;;;;;;6.10;4.97;;;16.30;99.90;;;;;;10329593;28;20494;-77
2022/07/07 22:33:45;;;;;;;6.10;5.50;;;16.40;99.90;;;;;;10317989;28;20192;-77
2022/07/07 22:39:07;;;;;;;6.25;5.55;;;16.40;99.90;;;;;;10317898;28;20225;-76
2022/07/07 22:44:28;;;;;;;5.57;4.88;;;16.30;99.90;;;;;;10317680;28;20224;-77
2022/07/07 22:49:50;;;;;;;4.95;4.45;;;16.30;99.90;;;;;;10318184;28;20224;-76
2022/07/07 22:55:12;;;;;;;7.18;5.55;;;16.30;99.90;;;;;;10348917;28;20219;-76
2022/07/07 23:00:33;;;;;;;4.88;4.35;;;16.30;99.90;;;;;;10357515;28;20449;-77
2022/07/07 23:05:56;;;;;;;6.80;5.07;;;16.20;99.90;;;;;;10319673;28;20303;-76
2022/07/07 23:11:17;;;;;;;5.68;5.18;;;16.30;99.90;;;;;;10337057;28;20497;-76
2022/07/07 23:16:39;;;;;;;4.80;4.15;;;16.20;99.90;;;;;;10356401;28;20193;-77
2022/07/07 23:22:01;;;;;;;6.70;4.95;;;16.20;99.90;;;;;;10355054;28;20270;-77
2022/07/07 23:27:22;;;;;;;5.00;4.50;;;16.20;99.90;;;;;;10321403;28;20229;-77
2022/07/07 23:32:44;;;;;;;5.68;4.65;;;16.10;99.90;;;;;;10301363;28;20208;-77
2022/07/07 23:38:06;;;;;;;5.80;4.05;;;16.10;99.90;;;;;;10315370;28;20201;-77
2022/07/07 23:43:27;;;;;;;4.85;3.92;;;16.10;99.90;;;;;;10315362;28;20216;-77
2022/07/07 23:48:49;;;;;;;5.70;4.50;;;16.10;99.90;;;;;;10314465;28;20231;-77
2022/07/07 23:54:10;;;;;;;5.78;4.32;;;16.10;99.90;;;;;;10327417;28;20267;-77
2022/07/07 23:59:32;;;;;;;5.53;3.58;;;16.10;99.90;;;;;;10355270;28;20204;-77
